メインページ
METAR-TAF:

METAR-TAF

空港 :

ハバナ, キューバ

ホセ・マルティ国際空港

緯度: 22-59N, 経度: 082-24W, 海抜: 59m

現時点の気象観測

当レポートは1時間14分前の20:55(UTC)に作成
東/北東の風 10kt
気温 29°C
湿度 58%
気圧 1019 hPa
視程: 9000m
高度4000ftの雲は散在している

METAR: MUHA 192055Z 07010KT 9000 SCT040 29/20 Q1019

時間: 17:09 (22:09 UTC)

予報

当レポートは5時間9分前の17:00(UTC)に作成
予報は19日の 18時(UTC)から 20日の 18時(UTC)まで有効
東/南東の風 10kt
視程: 9000m
高度2500ftの雲はほとんどない
19日の 19時(UTC)から 19日の 21時(UTC)まで徐々に
高度2000ftの千切れ雲あり
20日の 01時(UTC)から 20日の 03時(UTC)まで徐々に
の風 3kt
20日の 14時(UTC)から 20日の 15時(UTC)まで徐々に
東/南東の風 10kt

TAF: MUHA 191700Z 1918/2018 12010KT 9000 FEW025 BECMG 1919/1921 BKN020 BECMG 2001/2003 09003KT BECMG 2014/2015 12010KT

4,000以上の空港の気象観測と天気予報(METAR報とTAF報)

利用可能な観測所は地図上に黄色い丸と赤い丸で示す。

丸の上にカーソルを重ねると観測所名を参照できる。

次にクリックすると気象観測と天気予報を参照できる。

マップの切り替え:黒色「×」印の緑ボタンをクリックして拡大、「-」印の緑ボタンをクリックして縮小、緑色の三角印をクリックして隣りの地図に切り替え


METAR-TAF: